Aeroporto :
LOGIN :

Iscrizione | Disclaimer

   EN    FR    IT 

 










Sommario :    VFR   VFR Marginale   IFR   IFR Intensivo   IFR Molto Intensivo
Visibilità : 
Base nubi : 
>= 8 km
>= 3000ft
5 / 8 km
1000 / 3000 ft
1500m / 5 km
500 / 1000 ft
800 / 1500m
200 / 500 ft
< 800m
< 200 ft
Simboli :   Temporali  Nebbia  Neve Forte  Precipitazioni Forti  Vento > 20 kt
SIGMETs :   Varie  Temporali  Ghiacco  Turbolenza  Onda orograficha  Ceneri Vulcaniche






- Altitudine del aeroporto : 400 ft
- Codice IATA : BNX


LQBK - Banja Luka

ULTIMO METAR :
  • 010600Z 20010KT 9999 FEW033 18/10 Q1000 NOSIG

METARs OBSOLETI :
  • 010530Z 18013KT CAVOK 18/10 Q1000 NOSIG
  • 010500Z 21012KT CAVOK 19/10 Q1000 NOSIG
  • 010430Z 21012KT CAVOK 19/10 Q1000 NOSIG
  • 010400Z 19009KT CAVOK 17/10 Q1000 NOSIG
  • 010330Z 14005KT CAVOK 18/10 Q1000 NOSIG
  • 010300Z 18007KT CAVOK 17/10 Q1000 NOSIG
  • 010230Z 19010KT CAVOK 18/10 Q1000 NOSIG
  • 010200Z VRB02KT CAVOK 18/10 Q1001 NOSIG
  • 010130Z 19012KT CAVOK 19/10 Q1001 NOSIG

TAF TAF LQBK
Valido dal 01 a 06 ore il 02 a 06 ore UTC


010500Z 0106/0206 21012KT CAVOK TX23/0113Z TN15/0201Z
TEMPO 0106/0118 23015G25KT
PROB30
TEMPO 0106/0115 23020G30KT
TEMPO 0200/0206 23015G30KT



MetMap, La meteo Aeronautica in un colpo d'occhio ! - Copyright ORBIFLY Dicembre 2007 - Disclaimer

ORBIFLY MET'MAP TEAM :

Programmazione e sviluppo : Alexandra Zaïnal
Concezione : Baudouin d'Aumeries
Supporto tecnico e logistico : Manuel Goepfert
Aiuto : Marc-Olivier Méhu
Aiuto per la traduzione : Arnaldo La Scala




FONTI E CREDITI :

   NOAA